The Hangar Logo

METARs in Plain English
Latest METAR information for EGVN - BRIZE NORTON

EGVN 190250Z 02009KT 3700 HZ OVC006 16/14 Q1010 YLO1 TEMPO 2000 +SHRA SCT004 BKN040CB

In plain english is....

This is a METAR report for EGVN - BRIZE NORTON .
The report was made 55 minutes ago, at 02:50 UTC.
The wind was blowing at a speed of 9 knots (10.4 miles per hour, 4.6 metres per second) from the North/Northeast (020°).
The visibility was 2.3 miles (3.7 kilometres).
Weather was Moderate Haze .
There were overcast at a height of 600 feet (183 metres).
The temperature was 16°C (61°F), a dew point of 14°C (57°F) and a relative humidity of 87.9%.
The altimeter setting (airfield QNH) was 1,010 hPa (29.83 inHg).
Other remarks YLO1 TEMPO 2000 +SHRA SCT004 BKN040CB.

UK Mainland

Ireland

Channel Islands

France

Other



Enter
Tel: 07092 887559 - Fax: 07092 183262

Terms of Use | Privacy Statement
Content copyright © 1999-2012 TheHangar.co.uk. All rights reserved.
Please send your questions, comments, or bug reports to the Webmaster.